createdAt,value
2022-12-14T00:01:56.850Z,29.00
2022-12-14T00:04:25.003Z,29.00
2022-12-14T00:06:53.140Z,29.60
2022-12-14T00:09:21.402Z,29.30
2022-12-14T00:11:50.396Z,28.40
2022-12-14T00:14:18.569Z,29.20
2022-12-14T00:16:46.633Z,29.90
2022-12-14T00:19:15.455Z,26.30
2022-12-14T00:21:43.523Z,29.10
2022-12-14T00:24:11.597Z,31.10
2022-12-14T00:26:39.948Z,28.20
2022-12-14T00:29:08.125Z,28.60
2022-12-14T00:31:36.628Z,26.90
2022-12-14T00:34:04.986Z,26.90
2022-12-14T00:36:33.062Z,29.80
2022-12-14T00:39:01.337Z,28.00
2022-12-14T00:41:29.509Z,24.70
2022-12-14T00:43:57.691Z,26.60
2022-12-14T00:46:25.866Z,27.90
2022-12-14T00:48:54.146Z,27.80
2022-12-14T00:51:23.223Z,28.70
2022-12-14T00:53:51.412Z,28.90
2022-12-14T00:56:19.479Z,27.20
2022-12-14T00:58:51.703Z,26.40
2022-12-14T01:01:21.166Z,28.70
2022-12-14T01:03:50.174Z,27.80
2022-12-14T01:06:20.564Z,28.50
2022-12-14T01:08:49.459Z,27.60
2022-12-14T01:11:17.651Z,27.20
2022-12-14T01:13:49.291Z,29.70
2022-12-14T01:16:18.397Z,27.60
2022-12-14T01:18:46.632Z,27.80
2022-12-14T01:21:16.340Z,28.20
2022-12-14T01:23:45.740Z,25.40
2022-12-14T01:26:16.639Z,26.70
2022-12-14T01:28:45.313Z,25.80
2022-12-14T01:31:15.547Z,27.90
2022-12-14T01:33:44.532Z,28.20
2022-12-14T01:36:15.289Z,29.20
2022-12-14T01:38:44.170Z,26.70
2022-12-14T01:41:23.920Z,30.30
2022-12-14T01:43:54.188Z,26.80
2022-12-14T01:46:27.523Z,27.40
2022-12-14T01:49:01.964Z,25.90
2022-12-14T01:51:31.685Z,29.00
2022-12-14T01:54:03.583Z,26.90
2022-12-14T01:56:35.723Z,28.00
2022-12-14T01:59:12.189Z,26.20
2022-12-14T02:01:40.945Z,27.80
2022-12-14T02:04:11.263Z,24.60
2022-12-14T02:06:43.513Z,25.60
2022-12-14T02:09:19.628Z,27.90
2022-12-14T02:11:55.796Z,27.70
2022-12-14T02:14:24.431Z,25.70
2022-12-14T02:16:53.608Z,28.30
2022-12-14T02:19:21.948Z,27.20
2022-12-14T02:22:17.405Z,27.50
2022-12-14T02:25:21.362Z,26.30
2022-12-14T02:28:10.805Z,25.30
2022-12-14T02:30:40.860Z,25.70
2022-12-14T02:33:28.553Z,26.50
2022-12-14T02:36:02.048Z,25.90
2022-12-14T02:38:45.645Z,27.20
2022-12-14T02:41:21.238Z,24.90
2022-12-14T02:44:01.104Z,26.70
2022-12-14T02:46:35.200Z,24.50
2022-12-14T02:49:10.481Z,27.70
2022-12-14T02:54:24.292Z,24.20
2022-12-14T02:56:59.535Z,16.90
2022-12-14T02:59:28.513Z,17.50
2022-12-14T03:01:57.518Z,25.00
2022-12-14T03:04:25.827Z,24.90
2022-12-14T03:07:02.133Z,26.10
2022-12-14T03:09:32.377Z,24.40
2022-12-14T03:12:06.503Z,24.80
2022-12-14T03:14:41.031Z,30.30
2022-12-14T03:17:19.470Z,33.70
2022-12-14T03:19:53.135Z,32.00
2022-12-14T03:22:26.211Z,31.50
2022-12-14T03:24:58.424Z,26.70
2022-12-14T03:27:31.298Z,26.80
2022-12-14T03:30:02.677Z,25.30
2022-12-14T03:32:33.761Z,27.40
2022-12-14T03:35:08.000Z,26.60
2022-12-14T03:37:42.200Z,25.60
2022-12-14T03:40:13.854Z,25.70
2022-12-14T03:42:56.950Z,27.10
2022-12-14T03:45:31.515Z,25.30
2022-12-14T03:48:10.970Z,24.40
2022-12-14T03:50:43.190Z,23.70
2022-12-14T03:53:14.676Z,24.30
2022-12-14T03:55:50.824Z,27.30
2022-12-14T03:58:34.513Z,26.50
2022-12-14T04:01:10.812Z,22.60
2022-12-14T04:03:50.062Z,21.70
2022-12-14T04:06:26.566Z,29.20
2022-12-14T04:09:04.136Z,27.50
2022-12-14T04:11:57.485Z,24.20
2022-12-14T04:14:49.851Z,22.90
2022-12-14T04:17:43.816Z,22.00
2022-12-14T04:20:16.719Z,22.60
2022-12-14T04:22:49.622Z,21.10
2022-12-14T04:25:39.281Z,21.60
2022-12-14T04:28:33.045Z,20.70
2022-12-14T04:31:07.005Z,20.30
2022-12-14T04:33:47.840Z,18.30
2022-12-14T04:36:21.961Z,19.70
2022-12-14T04:38:55.772Z,22.60
2022-12-14T04:41:29.603Z,26.80
2022-12-14T04:44:03.068Z,29.10
2022-12-14T04:46:40.371Z,26.80
2022-12-14T04:49:18.586Z,26.10
2022-12-14T04:51:53.435Z,26.70
2022-12-14T04:54:26.563Z,23.90
2022-12-14T04:57:00.801Z,24.40
2022-12-14T04:59:29.814Z,30.70
2022-12-14T05:02:09.522Z,26.90
2022-12-14T05:04:57.000Z,25.20
2022-12-14T05:07:37.854Z,22.70
2022-12-14T05:10:11.192Z,21.20
2022-12-14T05:12:46.648Z,25.00
2022-12-14T05:15:19.274Z,21.60
2022-12-14T05:17:47.947Z,21.60
2022-12-14T05:20:18.490Z,24.80
2022-12-14T05:22:46.574Z,24.80
2022-12-14T05:25:15.278Z,24.50
2022-12-14T05:27:43.837Z,21.60
2022-12-14T05:30:13.886Z,24.00
2022-12-14T05:32:42.033Z,20.50
2022-12-14T05:35:13.273Z,19.00
2022-12-14T05:37:42.092Z,20.80
2022-12-14T05:40:12.536Z,20.10
2022-12-14T05:42:44.742Z,17.50
2022-12-14T05:45:15.982Z,21.90
2022-12-14T05:47:44.452Z,25.00
2022-12-14T05:50:12.561Z,21.60
2022-12-14T05:52:40.690Z,22.50
2022-12-14T05:55:10.206Z,25.60
2022-12-14T05:57:38.692Z,27.30
2022-12-14T06:00:09.146Z,27.70
2022-12-14T06:02:37.275Z,26.20
2022-12-14T06:05:06.510Z,26.10
2022-12-14T06:07:34.573Z,26.30
2022-12-14T06:10:02.917Z,25.70
2022-12-14T06:12:31.321Z,25.60
2022-12-14T06:14:59.553Z,29.20
2022-12-14T06:17:27.783Z,30.10
2022-12-14T06:19:55.772Z,35.40
2022-12-14T06:22:24.508Z,36.80
2022-12-14T06:24:53.185Z,29.70
2022-12-14T06:27:21.295Z,37.00
2022-12-14T06:29:49.747Z,36.50
2022-12-14T06:32:17.848Z,35.50
2022-12-14T06:34:46.537Z,36.30
2022-12-14T06:37:15.497Z,33.40
2022-12-14T06:39:43.890Z,28.80
2022-12-14T06:42:11.992Z,29.10
2022-12-14T06:44:40.021Z,29.00
2022-12-14T06:47:08.103Z,26.50
2022-12-14T06:49:36.257Z,19.00
2022-12-14T06:52:04.681Z,24.00
2022-12-14T06:54:32.808Z,21.20
2022-12-14T06:57:01.077Z,20.40
2022-12-14T06:59:29.709Z,17.10
2022-12-14T07:01:57.859Z,15.20
2022-12-14T07:04:26.136Z,15.50
2022-12-14T07:06:54.186Z,23.20
2022-12-14T07:09:22.324Z,18.70
2022-12-14T07:11:50.952Z,13.40
2022-12-14T07:14:19.034Z,21.50
2022-12-14T07:16:48.597Z,25.90
2022-12-14T07:19:18.055Z,30.80
2022-12-14T07:21:46.355Z,34.40
2022-12-14T07:24:14.558Z,31.90
2022-12-14T07:26:42.610Z,28.10
2022-12-14T07:29:11.634Z,29.50
2022-12-14T07:31:39.800Z,28.80
2022-12-14T07:34:11.797Z,27.30
2022-12-14T07:36:40.096Z,27.50
2022-12-14T07:39:10.175Z,28.70
2022-12-14T07:41:38.243Z,28.60
2022-12-14T07:44:06.406Z,27.70
2022-12-14T07:46:34.963Z,28.50
2022-12-14T07:49:03.772Z,25.40
2022-12-14T07:51:35.212Z,26.70
2022-12-14T07:54:05.666Z,26.20
2022-12-14T07:56:35.749Z,25.60
2022-12-14T07:59:07.683Z,26.70
2022-12-14T08:01:37.374Z,27.50
2022-12-14T08:04:08.213Z,25.00
2022-12-14T08:06:37.955Z,30.80
2022-12-14T08:09:07.310Z,27.10
2022-12-14T08:11:35.902Z,27.80
2022-12-14T08:14:06.474Z,26.60
2022-12-14T08:16:34.855Z,27.40
2022-12-14T08:19:03.227Z,28.50
2022-12-14T08:21:32.283Z,27.30
2022-12-14T08:24:00.751Z,28.70
2022-12-14T08:26:35.246Z,29.30
2022-12-14T08:29:04.438Z,28.20
2022-12-14T08:31:33.234Z,29.20
2022-12-14T08:34:02.335Z,30.00
2022-12-14T08:36:33.351Z,29.20
2022-12-14T08:39:03.910Z,27.00
2022-12-14T08:41:33.307Z,27.50
2022-12-14T08:44:02.820Z,28.40
2022-12-14T08:46:33.811Z,25.80
2022-12-14T08:49:02.497Z,26.60
2022-12-14T08:51:30.713Z,27.90
2022-12-14T08:53:59.301Z,29.00
2022-12-14T08:56:28.457Z,27.40
2022-12-14T08:58:57.626Z,27.30
2022-12-14T09:01:32.984Z,28.50
2022-12-14T09:04:07.542Z,26.30
2022-12-14T09:06:37.747Z,28.30
2022-12-14T09:09:10.704Z,30.50
2022-12-14T09:11:43.839Z,26.20
2022-12-14T09:14:12.194Z,25.20
2022-12-14T09:16:40.494Z,25.60
2022-12-14T09:19:08.806Z,26.60
2022-12-14T09:21:37.786Z,29.10
2022-12-14T09:24:07.351Z,27.70
2022-12-14T09:26:35.810Z,26.60
2022-12-14T09:29:04.374Z,26.00
2022-12-14T09:31:32.503Z,29.70
2022-12-14T09:34:00.691Z,30.00
2022-12-14T09:36:29.175Z,30.40
2022-12-14T09:38:58.795Z,28.20
2022-12-14T09:41:46.555Z,27.70
2022-12-14T09:44:31.131Z,26.50
2022-12-14T09:47:06.583Z,26.80
2022-12-14T09:49:41.379Z,27.70
2022-12-14T09:52:15.631Z,27.60
2022-12-14T09:54:46.497Z,29.20
2022-12-14T09:57:27.459Z,28.40
2022-12-14T09:59:56.110Z,28.60
2022-12-14T10:02:34.776Z,28.80
2022-12-14T10:05:18.421Z,27.60
2022-12-14T10:07:56.674Z,29.80
2022-12-14T10:10:28.776Z,29.00
2022-12-14T10:13:10.378Z,30.10
2022-12-14T10:15:48.515Z,29.70
2022-12-14T10:18:59.089Z,29.00
2022-12-14T10:21:39.049Z,28.50
2022-12-14T10:24:15.427Z,30.70
2022-12-14T10:26:48.058Z,26.50
2022-12-14T10:29:25.683Z,29.60
2022-12-14T10:32:01.851Z,28.60
2022-12-14T10:34:32.075Z,28.70
2022-12-14T10:37:12.368Z,29.70
2022-12-14T10:39:51.218Z,30.50
2022-12-14T10:42:29.309Z,27.40
2022-12-14T10:45:38.992Z,27.80
2022-12-14T10:48:12.891Z,31.30
2022-12-14T10:50:53.617Z,30.90
2022-12-14T10:53:29.880Z,31.60
2022-12-14T10:56:04.002Z,32.30
2022-12-14T10:58:32.710Z,32.50
2022-12-14T11:01:01.121Z,33.10
2022-12-14T11:03:29.527Z,31.20
2022-12-14T11:06:02.470Z,26.50
2022-12-14T11:08:43.136Z,27.10
2022-12-14T11:11:21.196Z,31.80
2022-12-14T11:13:52.292Z,28.40
2022-12-14T11:16:32.057Z,24.50
2022-12-14T11:19:04.524Z,26.30
2022-12-14T11:21:35.573Z,25.40
2022-12-14T11:24:05.696Z,30.20
2022-12-14T11:26:37.868Z,25.30
2022-12-14T11:29:16.300Z,22.90
2022-12-14T11:31:47.475Z,24.10
2022-12-14T11:34:27.991Z,25.80
2022-12-14T11:36:56.360Z,23.50
2022-12-14T11:39:25.763Z,23.40
2022-12-14T11:42:03.977Z,27.50
2022-12-14T11:44:35.897Z,19.60
2022-12-14T11:47:11.287Z,20.50
2022-12-14T11:49:45.157Z,20.70
2022-12-14T11:52:16.515Z,26.70
2022-12-14T11:54:50.107Z,26.40
2022-12-14T11:57:26.128Z,21.40
2022-12-14T11:59:57.514Z,23.10
2022-12-14T12:02:29.397Z,24.40
2022-12-14T12:05:05.026Z,25.20
2022-12-14T12:07:36.020Z,21.80
2022-12-14T12:10:15.688Z,19.90
2022-12-14T12:12:54.117Z,20.20
2022-12-14T12:15:26.600Z,18.40
2022-12-14T12:18:00.361Z,22.40
2022-12-14T12:20:34.761Z,19.70
2022-12-14T12:23:07.651Z,25.10
2022-12-14T12:25:38.276Z,24.10
2022-12-14T12:28:17.695Z,26.80
2022-12-14T12:30:51.134Z,23.90
2022-12-14T12:33:27.923Z,19.90
2022-12-14T12:36:00.065Z,16.20
2022-12-14T12:38:49.497Z,20.40
2022-12-14T12:41:32.842Z,15.30
2022-12-14T12:44:11.768Z,22.50
2022-12-14T12:47:15.278Z,24.00
2022-12-14T12:49:38.637Z,23.70
2022-12-14T12:52:14.932Z,25.60
2022-12-14T12:54:52.352Z,24.20
2022-12-14T12:57:22.114Z,26.70
2022-12-14T12:59:54.930Z,22.50
2022-12-14T13:02:31.024Z,30.80
2022-12-14T13:05:29.055Z,26.40
2022-12-14T13:07:56.828Z,26.40
2022-12-14T13:10:29.607Z,22.40
2022-12-14T13:13:02.891Z,22.40
2022-12-14T13:15:35.842Z,22.90
2022-12-14T13:18:27.580Z,25.80
2022-12-14T13:21:05.715Z,23.30
2022-12-14T13:23:44.758Z,22.60
2022-12-14T13:26:56.690Z,22.60
2022-12-14T13:29:29.414Z,19.70
2022-12-14T13:32:05.970Z,23.00
2022-12-14T13:34:46.903Z,23.90
2022-12-14T13:37:37.824Z,18.30
2022-12-14T13:40:32.515Z,18.40
2022-12-14T13:43:14.568Z,20.80
2022-12-14T13:45:45.613Z,16.60
2022-12-14T13:48:24.082Z,17.70
2022-12-14T13:51:02.166Z,19.70
2022-12-14T13:53:36.056Z,10.00
2022-12-14T13:56:06.128Z,11.40
2022-12-14T13:58:39.378Z,18.70
2022-12-14T14:01:11.633Z,20.40
2022-12-14T14:03:51.359Z,20.20
2022-12-14T14:06:35.430Z,20.50
2022-12-14T14:09:36.167Z,17.10
2022-12-14T14:12:27.244Z,18.10
2022-12-14T14:14:58.331Z,14.00
2022-12-14T14:17:35.003Z,20.00
2022-12-14T14:20:34.048Z,19.30
2022-12-14T14:23:36.743Z,21.50
2022-12-14T14:26:29.418Z,19.70
2022-12-14T14:29:24.745Z,20.00
2022-12-14T14:31:56.080Z,16.30
2022-12-14T14:34:33.882Z,15.90
2022-12-14T14:37:23.036Z,24.50
2022-12-14T14:40:16.776Z,22.60
2022-12-14T14:42:53.819Z,21.70
2022-12-14T14:45:38.693Z,21.30
2022-12-14T14:48:21.621Z,22.60
2022-12-14T14:51:01.868Z,21.60
2022-12-14T14:53:32.518Z,23.70
2022-12-14T14:56:19.190Z,19.80
2022-12-14T14:58:47.589Z,18.30
2022-12-14T15:01:28.149Z,21.70
2022-12-14T15:04:05.789Z,17.80
2022-12-14T15:06:43.287Z,21.10
2022-12-14T15:09:19.817Z,20.60
2022-12-14T15:11:51.064Z,21.30
2022-12-14T15:14:32.262Z,18.90
2022-12-14T15:17:13.640Z,23.60
2022-12-14T15:19:48.174Z,25.70
2022-12-14T15:22:19.137Z,25.60
2022-12-14T15:24:50.446Z,21.30
2022-12-14T15:27:26.644Z,29.30
2022-12-14T15:29:58.370Z,25.00
2022-12-14T15:32:27.197Z,23.50
2022-12-14T15:34:57.434Z,17.20
2022-12-14T15:37:36.940Z,25.60
2022-12-14T15:40:12.200Z,18.70
2022-12-14T15:42:47.355Z,27.30
2022-12-14T15:47:44.991Z,22.00
2022-12-14T15:50:23.014Z,22.40
2022-12-14T15:52:52.600Z,22.70
2022-12-14T15:55:38.800Z,22.70
2022-12-14T15:58:14.721Z,22.70
2022-12-14T16:00:46.697Z,21.20
2022-12-14T16:03:23.933Z,18.60
2022-12-14T16:05:53.058Z,18.80
2022-12-14T16:08:22.803Z,17.90
2022-12-14T16:10:53.348Z,18.20
2022-12-14T16:13:27.300Z,22.10
2022-12-14T16:15:57.725Z,22.00
2022-12-14T16:18:26.323Z,20.40
2022-12-14T16:21:00.148Z,18.80
2022-12-14T16:23:33.824Z,20.80
2022-12-14T16:26:18.433Z,22.50
2022-12-14T16:28:48.180Z,24.40
2022-12-14T16:31:19.894Z,23.60
2022-12-14T16:34:05.305Z,16.90
2022-12-14T16:36:36.557Z,21.20
2022-12-14T16:39:14.334Z,18.80
2022-12-14T16:41:54.618Z,24.20
2022-12-14T16:44:34.773Z,21.10
2022-12-14T16:47:26.016Z,19.80
2022-12-14T16:49:56.219Z,22.90
2022-12-14T16:52:26.582Z,22.60
2022-12-14T16:55:13.484Z,15.50
2022-12-14T16:57:50.924Z,16.00
2022-12-14T17:00:24.198Z,18.20
2022-12-14T17:02:58.914Z,21.70
2022-12-14T17:05:33.128Z,16.00
2022-12-14T17:08:01.476Z,18.80
2022-12-14T17:10:30.254Z,22.50
2022-12-14T17:12:59.651Z,25.70
2022-12-14T17:15:30.585Z,22.40
2022-12-14T17:18:01.656Z,19.80
2022-12-14T17:20:34.237Z,20.90
2022-12-14T17:23:04.324Z,20.10
2022-12-14T17:25:33.107Z,24.20
2022-12-14T17:28:01.318Z,20.20
2022-12-14T17:30:29.691Z,25.60
2022-12-14T17:32:58.465Z,24.40
2022-12-14T17:35:30.235Z,23.00
2022-12-14T17:37:58.918Z,26.70
2022-12-14T17:40:27.629Z,27.30
2022-12-14T17:42:58.431Z,23.30
2022-12-14T17:45:28.593Z,28.50
2022-12-14T17:47:57.808Z,27.90
2022-12-14T17:50:26.263Z,27.50
2022-12-14T17:52:54.931Z,28.70
2022-12-14T17:55:24.958Z,27.10
2022-12-14T17:57:53.952Z,16.80
2022-12-14T18:00:42.708Z,23.20
2022-12-14T18:03:12.458Z,26.30
2022-12-14T18:05:48.045Z,27.70
2022-12-14T18:08:17.272Z,25.70
2022-12-14T18:10:46.180Z,24.50
2022-12-14T18:13:14.900Z,24.70
2022-12-14T18:15:45.224Z,24.70
2022-12-14T18:18:19.899Z,25.70
2022-12-14T18:20:52.228Z,30.10
2022-12-14T18:23:21.166Z,27.50
2022-12-14T18:25:51.762Z,27.60
2022-12-14T18:28:21.542Z,27.70
2022-12-14T18:30:52.684Z,27.20
2022-12-14T18:33:23.516Z,24.80
2022-12-14T18:35:53.014Z,28.20
2022-12-14T18:38:21.594Z,28.80
2022-12-14T18:40:52.158Z,28.40
2022-12-14T18:43:23.174Z,24.40
2022-12-14T18:45:52.799Z,30.80
2022-12-14T18:48:21.757Z,28.40
2022-12-14T18:50:51.751Z,27.80
2022-12-14T18:53:22.260Z,24.30
2022-12-14T18:55:51.024Z,26.90
2022-12-14T18:58:21.426Z,28.50
2022-12-14T19:00:51.775Z,27.70
2022-12-14T19:03:20.287Z,25.40
2022-12-14T19:05:48.776Z,28.00
2022-12-14T19:08:17.625Z,28.50
2022-12-14T19:10:47.597Z,27.60
2022-12-14T19:13:26.123Z,25.40
2022-12-14T19:15:55.169Z,25.30
2022-12-14T19:18:24.062Z,20.40
2022-12-14T19:20:52.209Z,24.60
2022-12-14T19:23:20.525Z,21.10
2022-12-14T19:25:49.102Z,25.50
2022-12-14T19:28:33.505Z,27.40
2022-12-14T19:31:03.288Z,30.30
2022-12-14T19:33:32.347Z,28.80
2022-12-14T19:36:03.984Z,32.30
2022-12-14T19:38:33.873Z,31.10
2022-12-14T19:41:05.490Z,30.70
2022-12-14T19:43:34.708Z,28.30
2022-12-14T19:46:07.589Z,26.00
2022-12-14T19:48:37.214Z,24.40
2022-12-14T19:51:06.754Z,22.70
2022-12-14T19:53:35.553Z,27.60
2022-12-14T19:56:04.977Z,23.30
2022-12-14T19:58:33.239Z,26.10
2022-12-14T20:01:02.027Z,26.40
2022-12-14T20:03:30.837Z,21.30
2022-12-14T20:06:00.026Z,25.00
2022-12-14T20:08:30.098Z,23.80
2022-12-14T20:10:58.399Z,23.80
2022-12-14T20:13:28.827Z,25.20
2022-12-14T20:15:58.725Z,22.20
2022-12-14T20:18:27.911Z,27.40
2022-12-14T20:21:02.562Z,30.10
2022-12-14T20:23:34.791Z,33.20
2022-12-14T20:26:05.391Z,27.50
2022-12-14T20:28:34.081Z,31.80
2022-12-14T20:31:06.406Z,27.20
2022-12-14T20:33:35.154Z,29.00
2022-12-14T20:36:04.832Z,26.70
2022-12-14T20:38:33.752Z,27.70
2022-12-14T20:41:05.890Z,27.50
2022-12-14T20:43:35.552Z,24.70
2022-12-14T20:46:04.984Z,22.90
2022-12-14T20:48:33.442Z,25.50
2022-12-14T20:51:02.954Z,26.80
2022-12-14T20:53:32.075Z,21.10
2022-12-14T20:56:04.238Z,21.60
2022-12-14T20:58:32.286Z,24.10
2022-12-14T21:01:06.838Z,31.50
2022-12-14T21:03:35.889Z,31.80
2022-12-14T21:06:05.676Z,30.40
2022-12-14T21:08:51.896Z,27.60
2022-12-14T21:11:38.950Z,28.70
2022-12-14T21:14:07.128Z,27.80
2022-12-14T21:16:35.605Z,28.30
2022-12-14T21:19:04.466Z,22.30
2022-12-14T21:21:32.939Z,27.30
2022-12-14T21:24:01.109Z,25.50
2022-12-14T21:26:29.230Z,26.50
2022-12-14T21:28:57.692Z,25.80
2022-12-14T21:31:25.907Z,23.60
2022-12-14T21:33:55.160Z,25.90
2022-12-14T21:36:23.445Z,28.10
2022-12-14T21:38:52.537Z,29.50
2022-12-14T21:41:39.242Z,18.40
2022-12-14T21:44:07.623Z,26.90
2022-12-14T21:46:36.268Z,26.70
2022-12-14T21:49:06.054Z,23.50
2022-12-14T21:51:34.576Z,24.70
2022-12-14T21:54:03.617Z,22.70
2022-12-14T21:56:51.321Z,22.60
2022-12-14T21:59:25.284Z,23.60
2022-12-14T22:01:54.705Z,22.60
2022-12-14T22:04:23.949Z,23.40
2022-12-14T22:06:52.549Z,22.00
2022-12-14T22:09:21.299Z,23.60
2022-12-14T22:11:49.910Z,24.80
2022-12-14T22:14:19.853Z,28.00
2022-12-14T22:16:48.577Z,29.10
2022-12-14T22:19:19.056Z,29.70
2022-12-14T22:21:47.841Z,29.30
2022-12-14T22:24:17.430Z,24.80
2022-12-14T22:26:46.020Z,26.70
2022-12-14T22:29:15.849Z,24.10
2022-12-14T22:31:44.431Z,25.50
2022-12-14T22:34:16.589Z,25.90
2022-12-14T22:36:45.010Z,23.20
2022-12-14T22:39:14.003Z,25.10
2022-12-14T22:41:42.445Z,23.10
2022-12-14T22:44:12.255Z,23.00
2022-12-14T22:46:41.050Z,23.20
2022-12-14T22:49:10.251Z,18.40
2022-12-14T22:51:38.427Z,24.30
2022-12-14T22:54:06.747Z,24.60
2022-12-14T22:56:41.044Z,28.90
2022-12-14T22:59:14.693Z,28.50
2022-12-14T23:01:43.655Z,28.20
2022-12-14T23:04:18.030Z,26.70
2022-12-14T23:06:46.345Z,24.10
2022-12-14T23:09:32.871Z,24.90
2022-12-14T23:12:21.905Z,24.60
2022-12-14T23:15:08.696Z,24.70
2022-12-14T23:17:55.624Z,22.60
2022-12-14T23:20:41.940Z,20.60
2022-12-14T23:23:28.767Z,23.70
2022-12-14T23:26:20.080Z,24.20
2022-12-14T23:29:06.469Z,26.30
2022-12-14T23:31:53.277Z,26.50
2022-12-14T23:34:39.753Z,24.80
2022-12-14T23:37:26.473Z,22.50
2022-12-14T23:40:12.882Z,26.60
2022-12-14T23:43:00.101Z,24.40
2022-12-14T23:45:46.344Z,22.90
2022-12-14T23:48:33.140Z,22.00
2022-12-14T23:51:20.659Z,23.20
2022-12-14T23:54:07.163Z,23.70
2022-12-14T23:56:54.719Z,22.30
2022-12-14T23:59:41.108Z,19.60
